EWG437 LFKB-EDDK
Flight info
| Callsign | EWG437 |
|---|---|
| Flight time | 1h 31m |
| Altitude | 19000 |
| Route | MOULE L146 ELB/N0442F360 DCT NORNI DCT UPDIN DCT ABESI DCT LADOL T163 KOVAN/N0440F340 T844 UMDAS/N0369F240 T844 ASKIK T840 GULKO GULKO1C |
| Aircraft | A21N/M-SDE2E3FGHIJ1J3J4J5M1P2RWXY/LB1D1 |
Departure
| Time | 2026-04-20 13:30 |
|---|---|
| Airport | Bastia-Poretta International airport (LFKB) |
Arrival
| Time | 2026-04-20 15:02 |
|---|---|
| Airport | Cologne Bonn Airport (EDDK) |
| Time | Latitude | Longitude | Altitude | Speed | Heading |
|---|---|---|---|---|---|
| 2026-04-20 12:46 | 42.54829 | 9.48162 | 41 ft | 0 kts | 252° |
| 2026-04-20 12:50 | 42.54830 | 9.48162 | 41 ft | 0 kts | 252° |
| 2026-04-20 13:16 | 42.54834 | 9.48181 | 41 ft | 4 kts | 252° |
| 2026-04-20 13:16 | 42.54842 | 9.48215 | 41 ft | 4 kts | 259° |
| 2026-04-20 13:16 | 42.54843 | 9.48249 | 40 ft | 4 kts | 284° |
| 2026-04-20 13:16 | 42.54832 | 9.48276 | 41 ft | 4 kts | 330° |
| 2026-04-20 13:17 | 42.54824 | 9.48281 | 41 ft | 3 kts | 343° |
| 2026-04-20 13:24 | 42.54829 | 9.48279 | 41 ft | 2 kts | 343° |
| 2026-04-20 13:25 | 42.54855 | 9.48268 | 38 ft | 5 kts | 343° |
| 2026-04-20 13:25 | 42.54883 | 9.48256 | 41 ft | 7 kts | 343° |
| 2026-04-20 13:25 | 42.54939 | 9.48236 | 41 ft | 9 kts | 354° |
| 2026-04-20 13:25 | 42.55010 | 9.48225 | 41 ft | 11 kts | 343° |
| 2026-04-20 13:26 | 42.55089 | 9.48193 | 41 ft | 13 kts | 343° |
| 2026-04-20 13:26 | 42.55179 | 9.48156 | 41 ft | 14 kts | 343° |
| 2026-04-20 13:26 | 42.55279 | 9.48113 | 41 ft | 16 kts | 342° |
| 2026-04-20 13:26 | 42.55389 | 9.48066 | 41 ft | 17 kts | 342° |
| 2026-04-20 13:27 | 42.55507 | 9.48015 | 38 ft | 18 kts | 342° |
| 2026-04-20 13:27 | 42.55632 | 9.47963 | 37 ft | 19 kts | 343° |
| 2026-04-20 13:27 | 42.55763 | 9.47909 | 33 ft | 20 kts | 343° |
| 2026-04-20 13:27 | 42.55882 | 9.47861 | 31 ft | 12 kts | 356° |
| 2026-04-20 13:28 | 42.55943 | 9.47917 | 30 ft | 12 kts | 72° |
| 2026-04-20 13:28 | 42.55973 | 9.48030 | 30 ft | 14 kts | 47° |
| 2026-04-20 13:28 | 42.56065 | 9.48039 | 29 ft | 15 kts | 344° |
| 2026-04-20 13:28 | 42.56169 | 9.47998 | 28 ft | 16 kts | 341° |
| 2026-04-20 13:29 | 42.56256 | 9.47924 | 27 ft | 14 kts | 313° |
| 2026-04-20 13:29 | 42.56315 | 9.47909 | 27 ft | 11 kts | 56° |
| 2026-04-20 13:29 | 42.56287 | 9.47944 | 27 ft | 4 kts | 164° |
| 2026-04-20 13:29 | 42.56278 | 9.47947 | 27 ft | 9 kts | 164° |
| 2026-04-20 13:30 | 42.55946 | 9.48089 | 30 ft | 91 kts | 162° |
| 2026-04-20 13:30 | 42.55116 | 9.48440 | 44 ft | 156 kts | 162° |
| 2026-04-20 13:30 | 42.54060 | 9.48881 | 617 ft | 159 kts | 162° |
| 2026-04-20 13:30 | 42.53121 | 9.49639 | 1248 ft | 165 kts | 126° |
| 2026-04-20 13:31 | 42.52870 | 9.51224 | 1617 ft | 190 kts | 79° |
| 2026-04-20 13:31 | 42.53409 | 9.52946 | 2220 ft | 206 kts | 62° |
| 2026-04-20 13:31 | 42.54128 | 9.54709 | 2913 ft | 221 kts | 63° |
| 2026-04-20 13:31 | 42.54900 | 9.56661 | 3381 ft | 247 kts | 63° |
| 2026-04-20 13:32 | 42.55746 | 9.58805 | 3968 ft | 266 kts | 63° |
| 2026-04-20 13:32 | 42.56633 | 9.61056 | 4792 ft | 273 kts | 62° |
| 2026-04-20 13:32 | 42.57523 | 9.63323 | 5666 ft | 278 kts | 62° |
| 2026-04-20 13:32 | 42.58445 | 9.65682 | 6571 ft | 282 kts | 62° |
| 2026-04-20 13:33 | 42.59363 | 9.68020 | 7434 ft | 286 kts | 62° |
| 2026-04-20 13:33 | 42.60309 | 9.70418 | 8299 ft | 291 kts | 61° |
| 2026-04-20 13:33 | 42.61273 | 9.72850 | 9167 ft | 295 kts | 62° |
| 2026-04-20 13:33 | 42.62161 | 9.75376 | 10017 ft | 299 kts | 70° |
| 2026-04-20 13:34 | 42.62735 | 9.78182 | 10494 ft | 319 kts | 76° |
| 2026-04-20 13:34 | 42.63242 | 9.81219 | 10866 ft | 341 kts | 77° |
| 2026-04-20 13:34 | 42.63781 | 9.84422 | 11464 ft | 352 kts | 75° |
| 2026-04-20 13:34 | 42.64792 | 9.87440 | 12219 ft | 354 kts | 53° |
| 2026-04-20 13:35 | 42.66517 | 9.89801 | 12979 ft | 354 kts | 32° |
| 2026-04-20 13:35 | 42.68712 | 9.91246 | 13733 ft | 351 kts | 12° |
| 2026-04-20 13:35 | 42.71119 | 9.91658 | 14482 ft | 349 kts | 356° |
| 2026-04-20 13:35 | 42.73548 | 9.91577 | 15239 ft | 351 kts | 354° |
| 2026-04-20 13:36 | 42.76000 | 9.91465 | 15988 ft | 354 kts | 354° |
| 2026-04-20 13:36 | 42.78469 | 9.91381 | 16709 ft | 357 kts | 355° |
| 2026-04-20 13:36 | 42.80963 | 9.91318 | 17419 ft | 360 kts | 355° |
| 2026-04-20 13:36 | 42.83474 | 9.91267 | 18121 ft | 363 kts | 355° |
| 2026-04-20 13:37 | 42.86004 | 9.91221 | 18795 ft | 365 kts | 355° |
| 2026-04-20 13:37 | 42.88559 | 9.91175 | 19439 ft | 368 kts | 355° |
| 2026-04-20 13:37 | 42.91128 | 9.91130 | 20049 ft | 371 kts | 355° |
| 2026-04-20 13:37 | 42.93723 | 9.91085 | 20637 ft | 374 kts | 355° |
| 2026-04-20 13:38 | 42.96331 | 9.91039 | 21215 ft | 377 kts | 355° |
| 2026-04-20 13:38 | 42.98962 | 9.90994 | 21784 ft | 379 kts | 354° |
| 2026-04-20 13:38 | 43.01613 | 9.90947 | 22348 ft | 382 kts | 354° |
| 2026-04-20 13:38 | 43.04273 | 9.90899 | 22904 ft | 384 kts | 354° |
| 2026-04-20 13:39 | 43.06957 | 9.90853 | 23449 ft | 387 kts | 354° |
| 2026-04-20 13:39 | 43.09655 | 9.90806 | 23949 ft | 390 kts | 354° |
| 2026-04-20 13:39 | 43.12378 | 9.90758 | 24466 ft | 392 kts | 354° |
| 2026-04-20 13:39 | 43.15113 | 9.90708 | 24965 ft | 394 kts | 354° |
| 2026-04-20 13:40 | 43.17866 | 9.90658 | 25436 ft | 397 kts | 354° |
| 2026-04-20 13:40 | 43.20598 | 9.90610 | 25897 ft | 399 kts | 354° |
| 2026-04-20 13:40 | 43.23416 | 9.90562 | 26369 ft | 401 kts | 354° |
| 2026-04-20 13:40 | 43.26212 | 9.90513 | 26808 ft | 403 kts | 354° |
| 2026-04-20 13:41 | 43.28985 | 9.90463 | 27218 ft | 405 kts | 354° |
| 2026-04-20 13:41 | 43.31810 | 9.90412 | 27621 ft | 407 kts | 354° |
| 2026-04-20 13:41 | 43.34683 | 9.90362 | 28014 ft | 409 kts | 354° |
| 2026-04-20 13:41 | 43.37525 | 9.90243 | 28396 ft | 408 kts | 349° |
| 2026-04-20 13:42 | 43.40310 | 9.89633 | 28763 ft | 405 kts | 343° |
| 2026-04-20 13:42 | 43.45802 | 9.87989 | 29482 ft | 408 kts | 342° |
| 2026-04-20 13:42 | 43.48584 | 9.87155 | 29821 ft | 410 kts | 342° |
| 2026-04-20 13:43 | 43.51373 | 9.86319 | 30178 ft | 412 kts | 342° |
| 2026-04-20 13:43 | 43.54177 | 9.85480 | 30508 ft | 413 kts | 342° |
| 2026-04-20 13:43 | 43.56989 | 9.84642 | 30907 ft | 412 kts | 342° |
| 2026-04-20 13:43 | 43.59786 | 9.83811 | 31337 ft | 411 kts | 342° |
| 2026-04-20 13:44 | 43.62579 | 9.82986 | 31750 ft | 409 kts | 342° |
| 2026-04-20 13:44 | 43.65352 | 9.82161 | 32141 ft | 408 kts | 342° |
| 2026-04-20 13:44 | 43.68124 | 9.81344 | 32528 ft | 406 kts | 342° |
| 2026-04-20 13:44 | 43.70880 | 9.80517 | 32894 ft | 405 kts | 342° |
| 2026-04-20 13:45 | 43.73632 | 9.79687 | 33231 ft | 404 kts | 342° |
| 2026-04-20 13:45 | 43.76380 | 9.78866 | 33555 ft | 403 kts | 342° |
| 2026-04-20 13:45 | 43.79116 | 9.78051 | 33862 ft | 403 kts | 342° |
| 2026-04-20 13:45 | 43.81851 | 9.77236 | 34173 ft | 401 kts | 342° |
| 2026-04-20 13:46 | 43.84582 | 9.76423 | 34449 ft | 401 kts | 342° |
| 2026-04-20 13:46 | 43.87311 | 9.75607 | 34682 ft | 401 kts | 342° |
| 2026-04-20 13:46 | 43.90039 | 9.74786 | 34915 ft | 401 kts | 342° |
| 2026-04-20 13:46 | 43.92778 | 9.73964 | 35021 ft | 405 kts | 342° |
| 2026-04-20 13:47 | 43.98289 | 9.72308 | 35012 ft | 405 kts | 342° |
| 2026-04-20 13:47 | 44.03791 | 9.70646 | 34988 ft | 405 kts | 342° |
| 2026-04-20 13:48 | 44.09312 | 9.68980 | 34997 ft | 406 kts | 341° |
| 2026-04-20 13:48 | 44.14821 | 9.67309 | 35000 ft | 406 kts | 342° |
| 2026-04-20 13:49 | 44.20350 | 9.65665 | 34982 ft | 406 kts | 342° |
| 2026-04-20 13:49 | 44.25874 | 9.63997 | 34979 ft | 406 kts | 342° |
| 2026-04-20 13:50 | 44.31394 | 9.62317 | 34976 ft | 406 kts | 342° |
| 2026-04-20 13:50 | 44.36914 | 9.60640 | 34971 ft | 406 kts | 342° |
| 2026-04-20 13:51 | 44.42431 | 9.58958 | 34964 ft | 406 kts | 342° |
| 2026-04-20 13:51 | 44.47959 | 9.57266 | 34949 ft | 406 kts | 341° |
| 2026-04-20 13:52 | 44.53477 | 9.55576 | 34949 ft | 407 kts | 342° |
| 2026-04-20 13:52 | 44.59006 | 9.53864 | 34934 ft | 408 kts | 341° |
| 2026-04-20 13:53 | 44.64506 | 9.52168 | 34930 ft | 408 kts | 342° |
| 2026-04-20 13:53 | 44.70051 | 9.50478 | 34929 ft | 408 kts | 341° |
| 2026-04-20 13:54 | 44.75613 | 9.48764 | 34923 ft | 409 kts | 341° |
| 2026-04-20 13:54 | 44.81169 | 9.47044 | 34923 ft | 410 kts | 341° |
| 2026-04-20 13:55 | 44.86738 | 9.45313 | 34915 ft | 410 kts | 341° |
| 2026-04-20 13:55 | 44.92302 | 9.43587 | 34912 ft | 410 kts | 341° |
| 2026-04-20 13:56 | 44.97870 | 9.41858 | 34910 ft | 410 kts | 341° |
| 2026-04-20 13:56 | 45.03449 | 9.40117 | 34919 ft | 411 kts | 341° |
| 2026-04-20 13:57 | 45.09037 | 9.38367 | 34923 ft | 411 kts | 341° |
| 2026-04-20 13:57 | 45.14624 | 9.36626 | 34921 ft | 411 kts | 341° |
| 2026-04-20 13:58 | 45.20219 | 9.34871 | 34928 ft | 412 kts | 341° |
| 2026-04-20 13:58 | 45.25810 | 9.33111 | 34931 ft | 412 kts | 341° |
| 2026-04-20 13:59 | 45.31414 | 9.31347 | 34930 ft | 412 kts | 341° |
| 2026-04-20 13:59 | 45.37013 | 9.29581 | 34932 ft | 412 kts | 341° |
| 2026-04-20 14:00 | 45.42616 | 9.27813 | 34933 ft | 412 kts | 341° |
| 2026-04-20 14:00 | 45.48219 | 9.26034 | 34935 ft | 413 kts | 341° |
| 2026-04-20 14:01 | 45.53831 | 9.24249 | 34932 ft | 413 kts | 341° |
| 2026-04-20 14:01 | 45.59442 | 9.22470 | 34945 ft | 413 kts | 341° |
| 2026-04-20 14:02 | 45.65010 | 9.20689 | 34932 ft | 413 kts | 341° |
| 2026-04-20 14:02 | 45.70626 | 9.18901 | 34932 ft | 413 kts | 341° |
| 2026-04-20 14:03 | 45.76243 | 9.17104 | 34935 ft | 414 kts | 341° |
| 2026-04-20 14:03 | 45.81858 | 9.15302 | 34923 ft | 414 kts | 341° |
| 2026-04-20 14:04 | 45.87489 | 9.13497 | 34916 ft | 414 kts | 341° |
| 2026-04-20 14:04 | 45.93103 | 9.11689 | 34913 ft | 414 kts | 341° |
| 2026-04-20 14:05 | 45.98730 | 9.09863 | 34916 ft | 414 kts | 341° |
| 2026-04-20 14:05 | 46.04351 | 9.08031 | 34906 ft | 414 kts | 341° |
| 2026-04-20 14:06 | 46.09965 | 9.06220 | 34902 ft | 413 kts | 341° |
| 2026-04-20 14:06 | 46.15581 | 9.04432 | 34889 ft | 415 kts | 345° |
| 2026-04-20 14:07 | 46.21411 | 9.03970 | 34886 ft | 421 kts | 352° |
| 2026-04-20 14:07 | 46.27260 | 9.03767 | 34886 ft | 420 kts | 352° |
| 2026-04-20 14:08 | 46.33096 | 9.03520 | 34886 ft | 420 kts | 351° |
| 2026-04-20 14:08 | 46.38936 | 9.03276 | 34897 ft | 420 kts | 351° |
| 2026-04-20 14:09 | 46.44789 | 9.03031 | 34910 ft | 421 kts | 351° |
| 2026-04-20 14:09 | 46.50641 | 9.02771 | 34927 ft | 421 kts | 351° |
| 2026-04-20 14:10 | 46.56486 | 9.02519 | 34946 ft | 420 kts | 351° |
| 2026-04-20 14:10 | 46.62288 | 9.02264 | 34961 ft | 420 kts | 351° |
| 2026-04-20 14:11 | 46.68124 | 9.02009 | 34973 ft | 419 kts | 351° |
| 2026-04-20 14:11 | 46.73943 | 9.01755 | 34983 ft | 419 kts | 351° |
| 2026-04-20 14:12 | 46.79778 | 9.01504 | 34994 ft | 418 kts | 351° |
| 2026-04-20 14:12 | 46.85602 | 9.01248 | 35005 ft | 419 kts | 351° |
| 2026-04-20 14:13 | 46.91417 | 9.00982 | 35008 ft | 418 kts | 351° |
| 2026-04-20 14:13 | 46.97218 | 9.00724 | 35009 ft | 416 kts | 351° |
| 2026-04-20 14:14 | 47.03025 | 9.00467 | 35043 ft | 417 kts | 351° |
| 2026-04-20 14:14 | 47.07848 | 9.00260 | 35053 ft | 417 kts | 351° |
| 2026-04-20 14:15 | 47.13640 | 9.00003 | 35045 ft | 416 kts | 351° |
| 2026-04-20 14:15 | 47.19430 | 8.99741 | 35049 ft | 416 kts | 351° |
| 2026-04-20 14:16 | 47.25215 | 8.99483 | 35053 ft | 416 kts | 351° |
| 2026-04-20 14:16 | 47.30996 | 8.99223 | 35052 ft | 416 kts | 351° |
| 2026-04-20 14:17 | 47.36773 | 8.98964 | 35049 ft | 414 kts | 351° |
| 2026-04-20 14:17 | 47.42534 | 8.98707 | 35053 ft | 415 kts | 351° |
| 2026-04-20 14:18 | 47.48301 | 8.98446 | 35059 ft | 414 kts | 351° |
| 2026-04-20 14:18 | 47.54062 | 8.98183 | 35060 ft | 414 kts | 351° |
| 2026-04-20 14:19 | 47.59793 | 8.97931 | 35064 ft | 415 kts | 351° |
| 2026-04-20 14:19 | 47.65561 | 8.97670 | 35063 ft | 415 kts | 351° |
| 2026-04-20 14:20 | 47.71320 | 8.97414 | 35065 ft | 413 kts | 351° |
| 2026-04-20 14:20 | 47.77068 | 8.97150 | 35064 ft | 413 kts | 351° |
| 2026-04-20 14:21 | 47.82810 | 8.96892 | 35065 ft | 413 kts | 351° |
| 2026-04-20 14:21 | 47.88558 | 8.96628 | 35080 ft | 413 kts | 351° |
| 2026-04-20 14:22 | 47.94308 | 8.96359 | 35082 ft | 413 kts | 351° |
| 2026-04-20 14:22 | 48.00056 | 8.96096 | 35080 ft | 413 kts | 351° |
| 2026-04-20 14:23 | 48.05803 | 8.95833 | 35074 ft | 412 kts | 351° |
| 2026-04-20 14:23 | 48.11533 | 8.95570 | 35084 ft | 413 kts | 351° |
| 2026-04-20 14:24 | 48.17294 | 8.95440 | 35081 ft | 419 kts | 356° |
| 2026-04-20 14:24 | 48.23111 | 8.96272 | 35076 ft | 420 kts | 358° |
| 2026-04-20 14:25 | 48.28910 | 8.97177 | 35079 ft | 419 kts | 358° |
| 2026-04-20 14:25 | 48.34727 | 8.98059 | 35076 ft | 420 kts | 358° |
| 2026-04-20 14:26 | 48.40545 | 8.98943 | 35082 ft | 421 kts | 358° |
| 2026-04-20 14:26 | 48.46383 | 8.99828 | 35078 ft | 421 kts | 358° |
| 2026-04-20 14:27 | 48.52207 | 9.00725 | 35080 ft | 421 kts | 358° |
| 2026-04-20 14:27 | 48.58040 | 9.01614 | 35080 ft | 422 kts | 358° |
| 2026-04-20 14:28 | 48.63881 | 9.02602 | 35081 ft | 424 kts | 1° |
| 2026-04-20 14:28 | 48.69715 | 9.03984 | 35086 ft | 424 kts | 1° |
| 2026-04-20 14:29 | 48.75545 | 9.05376 | 35078 ft | 424 kts | 2° |
| 2026-04-20 14:29 | 48.81382 | 9.06770 | 35090 ft | 425 kts | 2° |
| 2026-04-20 14:30 | 48.87213 | 9.07897 | 35083 ft | 417 kts | 353° |
| 2026-04-20 14:30 | 48.90064 | 9.07467 | 35084 ft | 408 kts | 341° |
| 2026-04-20 14:30 | 48.92761 | 9.06267 | 35099 ft | 403 kts | 336° |
| 2026-04-20 14:31 | 48.98044 | 9.03521 | 35102 ft | 404 kts | 336° |
| 2026-04-20 14:31 | 49.03383 | 9.00806 | 35102 ft | 405 kts | 336° |
| 2026-04-20 14:32 | 49.08745 | 8.98109 | 35109 ft | 405 kts | 336° |
| 2026-04-20 14:32 | 49.14096 | 8.95402 | 35108 ft | 406 kts | 336° |
| 2026-04-20 14:33 | 49.19467 | 8.92677 | 35116 ft | 407 kts | 336° |
| 2026-04-20 14:33 | 49.24841 | 8.89945 | 35121 ft | 408 kts | 336° |
| 2026-04-20 14:34 | 49.30232 | 8.87203 | 35123 ft | 408 kts | 336° |
| 2026-04-20 14:34 | 49.35614 | 8.84453 | 35124 ft | 408 kts | 336° |
| 2026-04-20 14:35 | 49.41026 | 8.81788 | 35132 ft | 410 kts | 339° |
| 2026-04-20 14:35 | 49.46518 | 8.79389 | 35130 ft | 410 kts | 339° |
| 2026-04-20 14:36 | 49.52002 | 8.76990 | 35139 ft | 410 kts | 339° |
| 2026-04-20 14:36 | 49.57500 | 8.74578 | 35146 ft | 411 kts | 339° |
| 2026-04-20 14:37 | 49.62994 | 8.72163 | 35139 ft | 411 kts | 339° |
| 2026-04-20 14:37 | 49.68489 | 8.69738 | 35144 ft | 411 kts | 339° |
| 2026-04-20 14:38 | 49.73955 | 8.67318 | 35141 ft | 410 kts | 339° |
| 2026-04-20 14:38 | 49.79438 | 8.64884 | 35147 ft | 410 kts | 339° |
| 2026-04-20 14:39 | 49.84915 | 8.62454 | 35140 ft | 410 kts | 339° |
| 2026-04-20 14:39 | 49.90394 | 8.60015 | 35147 ft | 410 kts | 339° |
| 2026-04-20 14:40 | 49.95880 | 8.57565 | 35143 ft | 410 kts | 339° |
| 2026-04-20 14:40 | 50.01368 | 8.55105 | 35141 ft | 410 kts | 339° |
| 2026-04-20 14:41 | 50.06826 | 8.52525 | 35147 ft | 411 kts | 337° |
| 2026-04-20 14:41 | 50.12215 | 8.49625 | 34576 ft | 408 kts | 336° |
| 2026-04-20 14:42 | 50.14919 | 8.48157 | 33416 ft | 418 kts | 336° |
| 2026-04-20 14:42 | 50.17701 | 8.46652 | 32220 ft | 427 kts | 336° |
| 2026-04-20 14:42 | 50.20519 | 8.45133 | 31246 ft | 429 kts | 336° |
| 2026-04-20 14:42 | 50.23346 | 8.43614 | 30299 ft | 430 kts | 336° |
| 2026-04-20 14:43 | 50.26173 | 8.42088 | 29267 ft | 432 kts | 336° |
| 2026-04-20 14:43 | 50.28972 | 8.40410 | 28251 ft | 429 kts | 330° |
| 2026-04-20 14:43 | 50.31535 | 8.38091 | 27409 ft | 423 kts | 324° |
| 2026-04-20 14:43 | 50.34007 | 8.35639 | 26709 ft | 417 kts | 324° |
| 2026-04-20 14:44 | 50.36430 | 8.33213 | 26081 ft | 411 kts | 325° |
| 2026-04-20 14:44 | 50.38821 | 8.30812 | 25483 ft | 405 kts | 325° |
| 2026-04-20 14:44 | 50.41175 | 8.28447 | 24878 ft | 400 kts | 325° |
| 2026-04-20 14:44 | 50.43511 | 8.26110 | 24258 ft | 397 kts | 326° |
| 2026-04-20 14:45 | 50.45834 | 8.23778 | 23640 ft | 396 kts | 326° |
| 2026-04-20 14:45 | 50.48149 | 8.21451 | 23035 ft | 394 kts | 326° |
| 2026-04-20 14:45 | 50.50456 | 8.19138 | 22432 ft | 392 kts | 326° |
| 2026-04-20 14:45 | 50.52753 | 8.16839 | 21801 ft | 391 kts | 326° |
| 2026-04-20 14:46 | 50.55046 | 8.14537 | 21184 ft | 390 kts | 326° |
| 2026-04-20 14:46 | 50.57324 | 8.12233 | 20580 ft | 389 kts | 326° |
| 2026-04-20 14:46 | 50.59598 | 8.09943 | 19983 ft | 387 kts | 326° |
| 2026-04-20 14:46 | 50.61855 | 8.07668 | 19419 ft | 384 kts | 327° |
| 2026-04-20 14:47 | 50.64094 | 8.05402 | 18872 ft | 382 kts | 326° |
| 2026-04-20 14:47 | 50.66296 | 8.03160 | 18338 ft | 381 kts | 326° |
| 2026-04-20 14:47 | 50.68552 | 8.00874 | 17819 ft | 379 kts | 327° |
| 2026-04-20 14:48 | 50.72944 | 7.96416 | 16759 ft | 378 kts | 326° |
| 2026-04-20 14:48 | 50.75084 | 7.94028 | 16221 ft | 376 kts | 319° |
| 2026-04-20 14:48 | 50.76808 | 7.90944 | 15714 ft | 374 kts | 306° |
| 2026-04-20 14:48 | 50.78310 | 7.87595 | 15207 ft | 373 kts | 305° |
| 2026-04-20 14:49 | 50.79798 | 7.84221 | 14701 ft | 379 kts | 305° |
| 2026-04-20 14:49 | 50.81290 | 7.80859 | 14279 ft | 369 kts | 305° |
| 2026-04-20 14:49 | 50.82754 | 7.77576 | 13745 ft | 363 kts | 305° |
| 2026-04-20 14:49 | 50.84199 | 7.74342 | 13223 ft | 357 kts | 305° |
| 2026-04-20 14:50 | 50.85619 | 7.71164 | 12718 ft | 351 kts | 305° |
| 2026-04-20 14:50 | 50.87019 | 7.68029 | 12223 ft | 346 kts | 305° |
| 2026-04-20 14:50 | 50.88396 | 7.64942 | 11738 ft | 341 kts | 305° |
| 2026-04-20 14:50 | 50.89756 | 7.61889 | 11332 ft | 335 kts | 305° |
| 2026-04-20 14:51 | 50.91075 | 7.58922 | 11092 ft | 324 kts | 305° |
| 2026-04-20 14:51 | 50.92350 | 7.56048 | 10906 ft | 312 kts | 305° |
| 2026-04-20 14:51 | 50.93568 | 7.53290 | 10754 ft | 300 kts | 305° |
| 2026-04-20 14:51 | 50.94744 | 7.50629 | 10611 ft | 289 kts | 305° |
| 2026-04-20 14:52 | 50.95879 | 7.48067 | 10408 ft | 280 kts | 305° |
| 2026-04-20 14:52 | 50.96736 | 7.45345 | 10082 ft | 276 kts | 285° |
| 2026-04-20 14:52 | 50.96806 | 7.42322 | 9672 ft | 278 kts | 261° |
| 2026-04-20 14:52 | 50.96050 | 7.39498 | 9250 ft | 282 kts | 236° |
| 2026-04-20 14:53 | 50.94602 | 7.37420 | 8833 ft | 285 kts | 211° |
| 2026-04-20 14:53 | 50.92712 | 7.36463 | 8429 ft | 288 kts | 186° |
| 2026-04-20 14:53 | 50.90728 | 7.36813 | 8034 ft | 289 kts | 162° |
| 2026-04-20 14:53 | 50.88890 | 7.38072 | 7687 ft | 287 kts | 154° |
| 2026-04-20 14:54 | 50.87108 | 7.39490 | 7334 ft | 286 kts | 153° |
| 2026-04-20 14:54 | 50.85342 | 7.40920 | 6956 ft | 285 kts | 153° |
| 2026-04-20 14:54 | 50.83595 | 7.42336 | 6630 ft | 282 kts | 153° |
| 2026-04-20 14:54 | 50.81847 | 7.43752 | 6261 ft | 281 kts | 153° |
| 2026-04-20 14:55 | 50.80107 | 7.45161 | 5890 ft | 280 kts | 153° |
| 2026-04-20 14:55 | 50.78374 | 7.46562 | 5518 ft | 279 kts | 153° |
| 2026-04-20 14:55 | 50.76610 | 7.47826 | 5148 ft | 278 kts | 165° |
| 2026-04-20 14:55 | 50.74712 | 7.48005 | 4798 ft | 273 kts | 191° |
| 2026-04-20 14:56 | 50.72996 | 7.46906 | 4561 ft | 263 kts | 218° |
| 2026-04-20 14:56 | 50.71826 | 7.44825 | 4398 ft | 248 kts | 245° |
| 2026-04-20 14:56 | 50.71431 | 7.42292 | 4257 ft | 232 kts | 274° |
| 2026-04-20 14:56 | 50.71762 | 7.39881 | 4057 ft | 221 kts | 291° |
| 2026-04-20 14:57 | 50.72288 | 7.37655 | 3862 ft | 214 kts | 293° |
| 2026-04-20 14:57 | 50.72859 | 7.35501 | 3570 ft | 210 kts | 301° |
| 2026-04-20 14:57 | 50.73685 | 7.33697 | 3417 ft | 195 kts | 313° |
| 2026-04-20 14:57 | 50.74639 | 7.32250 | 3199 ft | 186 kts | 321° |
| 2026-04-20 14:58 | 50.75587 | 7.30901 | 2950 ft | 180 kts | 320° |
| 2026-04-20 14:58 | 50.76495 | 7.29596 | 2720 ft | 175 kts | 319° |
| 2026-04-20 14:58 | 50.77386 | 7.28312 | 2472 ft | 171 kts | 318° |
| 2026-04-20 14:58 | 50.78253 | 7.27062 | 2242 ft | 166 kts | 317° |
| 2026-04-20 14:59 | 50.79080 | 7.25867 | 2046 ft | 159 kts | 317° |
| 2026-04-20 14:59 | 50.79872 | 7.24726 | 1839 ft | 149 kts | 317° |
| 2026-04-20 14:59 | 50.80627 | 7.23640 | 1597 ft | 136 kts | 316° |
| 2026-04-20 14:59 | 50.81294 | 7.22682 | 1441 ft | 128 kts | 315° |
| 2026-04-20 15:00 | 50.81939 | 7.21750 | 1290 ft | 127 kts | 315° |
| 2026-04-20 15:00 | 50.82586 | 7.20805 | 1104 ft | 127 kts | 314° |
| 2026-04-20 15:00 | 50.83234 | 7.19860 | 953 ft | 127 kts | 315° |
| 2026-04-20 15:00 | 50.83888 | 7.18925 | 753 ft | 127 kts | 315° |
| 2026-04-20 15:01 | 50.84538 | 7.17968 | 621 ft | 127 kts | 315° |
| 2026-04-20 15:01 | 50.85199 | 7.17033 | 457 ft | 128 kts | 316° |
| 2026-04-20 15:01 | 50.85855 | 7.16085 | 314 ft | 126 kts | 316° |
| 2026-04-20 15:01 | 50.86405 | 7.15290 | 293 ft | 83 kts | 317° |
| 2026-04-20 15:02 | 50.86708 | 7.14848 | 275 ft | 40 kts | 317° |
| 2026-04-20 15:02 | 50.86833 | 7.14639 | 269 ft | 19 kts | 300° |
| 2026-04-20 15:02 | 50.86875 | 7.14434 | 265 ft | 20 kts | 278° |
| 2026-04-20 15:02 | 50.86890 | 7.14282 | 262 ft | 21 kts | 279° |
| 2026-04-20 15:03 | 50.86910 | 7.14123 | 260 ft | 13 kts | 293° |
| 2026-04-20 15:03 | 50.86970 | 7.14010 | 256 ft | 14 kts | 317° |
| 2026-04-20 15:03 | 50.87044 | 7.13901 | 249 ft | 15 kts | 317° |
| 2026-04-20 15:03 | 50.87123 | 7.13785 | 246 ft | 16 kts | 317° |
| 2026-04-20 15:04 | 50.87211 | 7.13660 | 243 ft | 17 kts | 318° |
| 2026-04-20 15:04 | 50.87304 | 7.13527 | 240 ft | 19 kts | 318° |
| 2026-04-20 15:04 | 50.87402 | 7.13386 | 238 ft | 20 kts | 317° |
| 2026-04-20 15:04 | 50.87509 | 7.13232 | 238 ft | 21 kts | 317° |
| 2026-04-20 15:05 | 50.87622 | 7.13066 | 238 ft | 23 kts | 317° |
| 2026-04-20 15:05 | 50.87717 | 7.12926 | 238 ft | 15 kts | 317° |
| 2026-04-20 15:05 | 50.87755 | 7.12872 | 238 ft | 5 kts | 317° |
| 2026-04-20 15:05 | 50.87784 | 7.12830 | 238 ft | 7 kts | 312° |
| 2026-04-20 15:06 | 50.87788 | 7.12749 | 238 ft | 7 kts | 256° |
| 2026-04-20 15:06 | 50.87785 | 7.12733 | 238 ft | 0 kts | 256° |
| 2026-04-20 15:06 | 50.87784 | 7.12720 | 238 ft | 3 kts | 262° |
| 2026-04-20 15:06 | 50.87794 | 7.12668 | 238 ft | 7 kts | 307° |
| 2026-04-20 15:07 | 50.87838 | 7.12620 | 238 ft | 9 kts | 344° |
| 2026-04-20 15:07 | 50.87907 | 7.12620 | 238 ft | 11 kts | 8° |
| 2026-04-20 15:07 | 50.87986 | 7.12594 | 238 ft | 13 kts | 321° |
| 2026-04-20 15:07 | 50.88032 | 7.12475 | 238 ft | 11 kts | 276° |
| 2026-04-20 15:08 | 50.87998 | 7.12388 | 238 ft | 5 kts | 215° |
| 2026-04-20 15:08 | 50.87981 | 7.12370 | 238 ft | 0 kts | 216° |